createdAt,value
2023-01-17T00:05:18.288Z,48.89
2023-01-17T00:10:25.754Z,49.29
2023-01-17T00:15:29.551Z,49.31
2023-01-17T00:20:50.925Z,49.69
2023-01-17T00:26:05.578Z,49.42
2023-01-17T00:31:09.054Z,50.18
2023-01-17T00:36:11.887Z,50.15
2023-01-17T00:41:14.765Z,50.97
2023-01-17T00:46:35.498Z,51.36
2023-01-17T00:51:57.145Z,51.25
2023-01-17T00:57:18.663Z,49.70
2023-01-17T01:02:39.886Z,49.26
2023-01-17T01:08:00.394Z,49.25
2023-01-17T01:13:21.266Z,49.15
2023-01-17T01:18:41.831Z,48.82
2023-01-17T01:24:02.480Z,48.90
2023-01-17T01:29:23.010Z,49.65
2023-01-17T01:34:24.888Z,48.66
2023-01-17T01:39:26.834Z,48.45
2023-01-17T01:44:49.721Z,48.68
2023-01-17T01:49:51.917Z,48.42
2023-01-17T01:55:00.894Z,49.39
2023-01-17T02:00:07.790Z,48.43
2023-01-17T02:05:16.913Z,48.17
2023-01-17T02:10:18.982Z,48.37
2023-01-17T02:15:26.282Z,48.07
2023-01-17T02:20:58.926Z,48.24
2023-01-17T02:26:31.229Z,48.39
2023-01-17T02:31:51.629Z,48.60
2023-01-17T02:37:11.911Z,48.70
2023-01-17T02:42:18.283Z,48.28
2023-01-17T02:47:26.795Z,48.12
2023-01-17T02:52:34.483Z,47.78
2023-01-17T02:57:55.101Z,47.64
2023-01-17T03:03:05.703Z,47.54
2023-01-17T03:08:08.162Z,47.75
2023-01-17T03:13:10.138Z,48.20
2023-01-17T03:18:15.094Z,47.04
2023-01-17T03:23:16.903Z,48.03
2023-01-17T03:28:18.730Z,47.16
2023-01-17T03:33:20.570Z,47.11
2023-01-17T03:38:22.492Z,47.43
2023-01-17T03:43:24.331Z,46.40
2023-01-17T03:48:26.139Z,45.76
2023-01-17T03:53:27.947Z,45.31
2023-01-17T03:58:29.792Z,45.53
2023-01-17T04:03:31.675Z,45.33
2023-01-17T04:08:33.518Z,45.14
2023-01-17T04:13:35.364Z,45.49
2023-01-17T04:18:37.290Z,45.35
2023-01-17T04:23:39.161Z,45.29
2023-01-17T04:28:41.012Z,45.62
2023-01-17T04:33:43.147Z,45.59
2023-01-17T04:38:44.978Z,45.36
2023-01-17T04:43:46.868Z,45.73
2023-01-17T04:48:48.707Z,45.48
2023-01-17T04:53:50.585Z,45.39
2023-01-17T04:58:52.408Z,45.20
2023-01-17T05:03:54.284Z,44.99
2023-01-17T05:08:56.133Z,45.38
2023-01-17T05:13:57.963Z,45.42
2023-01-17T05:18:59.802Z,44.73
2023-01-17T05:24:01.688Z,44.90
2023-01-17T05:29:03.623Z,44.80
2023-01-17T05:34:05.463Z,44.76
2023-01-17T05:39:07.381Z,45.18
2023-01-17T05:44:09.294Z,45.46
2023-01-17T05:49:11.149Z,45.93
2023-01-17T05:54:13.077Z,45.74
2023-01-17T05:59:17.233Z,45.46
2023-01-17T06:04:20.720Z,45.55
2023-01-17T06:09:22.648Z,45.65
2023-01-17T06:14:24.673Z,46.07
2023-01-17T06:19:26.668Z,46.14
2023-01-17T06:24:28.615Z,46.10
2023-01-17T06:29:30.542Z,46.48
2023-01-17T06:34:32.479Z,46.35
2023-01-17T06:39:34.595Z,46.94
2023-01-17T06:44:36.546Z,46.63
2023-01-17T06:49:38.416Z,46.56
2023-01-17T06:54:40.305Z,46.62
2023-01-17T06:59:42.180Z,46.29
2023-01-17T07:04:44.219Z,46.54
2023-01-17T07:09:46.264Z,46.35
2023-01-17T07:14:48.089Z,46.27
2023-01-17T07:19:50.022Z,46.49
2023-01-17T07:24:53.614Z,46.11
2023-01-17T07:29:55.586Z,46.44
2023-01-17T07:34:58.206Z,46.30
2023-01-17T07:40:02.542Z,46.46
2023-01-17T07:45:04.938Z,46.43
2023-01-17T07:50:07.916Z,46.57
2023-01-17T07:55:14.007Z,46.42
2023-01-17T08:00:16.468Z,46.32
2023-01-17T08:05:18.340Z,46.62
2023-01-17T08:10:20.456Z,46.64
2023-01-17T08:15:23.651Z,46.19
2023-01-17T08:20:27.991Z,46.09
2023-01-17T08:25:30.307Z,46.26
2023-01-17T08:30:32.139Z,45.78
2023-01-17T08:35:36.117Z,45.60
2023-01-17T08:40:38.333Z,45.45
2023-01-17T08:45:43.628Z,45.48
2023-01-17T08:50:46.037Z,45.38
2023-01-17T08:55:48.157Z,45.23
2023-01-17T09:00:50.141Z,44.29
2023-01-17T09:06:20.457Z,44.06
2023-01-17T09:11:22.277Z,44.16
2023-01-17T09:16:24.334Z,44.17
2023-01-17T09:21:26.958Z,44.16
2023-01-17T09:26:30.081Z,43.91
2023-01-17T09:31:31.961Z,43.90
2023-01-17T09:36:34.065Z,43.81
2023-01-17T09:41:44.997Z,43.26
2023-01-17T09:46:50.129Z,42.75
2023-01-17T09:51:53.834Z,42.93
2023-01-17T09:57:40.586Z,42.14
2023-01-17T10:02:57.455Z,41.54
2023-01-17T10:08:36.759Z,41.22
2023-01-17T10:14:01.403Z,40.63
2023-01-17T10:19:37.177Z,40.57
2023-01-17T10:25:01.501Z,40.80
2023-01-17T10:30:22.806Z,40.82
2023-01-17T10:35:33.459Z,40.73
2023-01-17T10:40:46.735Z,40.55
2023-01-17T10:45:54.449Z,40.89
2023-01-17T10:51:10.839Z,40.78
2023-01-17T10:56:17.423Z,40.73
2023-01-17T11:01:21.037Z,40.39
2023-01-17T11:06:25.720Z,40.52
2023-01-17T11:11:36.321Z,40.21
2023-01-17T11:16:38.575Z,40.21
2023-01-17T11:21:50.291Z,40.67
2023-01-17T11:26:52.619Z,40.25
2023-01-17T11:31:56.344Z,40.03
2023-01-17T11:37:18.417Z,40.04
2023-01-17T11:42:38.461Z,40.25
2023-01-17T11:47:40.324Z,40.32
2023-01-17T11:52:42.317Z,40.01
2023-01-17T11:57:50.720Z,39.76
2023-01-17T12:03:15.347Z,40.06
2023-01-17T12:08:38.669Z,39.55
2023-01-17T12:14:00.863Z,39.56
2023-01-17T12:19:18.581Z,39.59
2023-01-17T12:24:32.602Z,39.39
2023-01-17T12:29:49.533Z,39.39
2023-01-17T12:35:12.340Z,39.26
2023-01-17T12:40:23.611Z,39.18
2023-01-17T12:45:34.577Z,38.55
2023-01-17T12:50:39.128Z,37.30
2023-01-17T12:56:11.268Z,34.41
2023-01-17T13:01:28.495Z,32.60
2023-01-17T13:07:00.707Z,29.94
2023-01-17T13:12:10.626Z,29.07
2023-01-17T13:17:37.463Z,28.84
2023-01-17T13:22:40.768Z,27.88
2023-01-17T13:28:24.412Z,26.44
2023-01-17T13:33:50.131Z,26.06
2023-01-17T13:38:57.719Z,25.93
2023-01-17T13:44:21.062Z,25.13
2023-01-17T13:49:34.191Z,24.84
2023-01-17T13:54:47.679Z,24.29
2023-01-17T13:59:50.341Z,22.84
2023-01-17T14:05:21.461Z,23.29
2023-01-17T14:10:32.383Z,23.24
2023-01-17T14:15:49.916Z,22.63
2023-01-17T14:21:08.018Z,23.27
2023-01-17T14:26:21.625Z,23.32
2023-01-17T14:31:24.705Z,25.59
2023-01-17T14:36:26.691Z,27.63
2023-01-17T14:41:29.743Z,29.38
2023-01-17T14:46:32.692Z,30.40
2023-01-17T14:51:35.592Z,31.38
2023-01-17T14:56:37.719Z,31.60
2023-01-17T15:01:41.060Z,31.82
2023-01-17T15:06:44.009Z,32.32
2023-01-17T15:11:48.242Z,31.79
2023-01-17T15:16:52.185Z,32.33
2023-01-17T15:21:54.836Z,32.38
2023-01-17T15:26:56.859Z,32.64
2023-01-17T15:32:01.649Z,32.26
2023-01-17T15:37:08.047Z,32.36
2023-01-17T15:42:21.060Z,32.64
2023-01-17T15:47:33.739Z,32.89
2023-01-17T15:52:49.365Z,33.51
2023-01-17T15:57:51.185Z,33.94
2023-01-17T16:02:58.981Z,34.37
2023-01-17T16:08:04.448Z,34.48
2023-01-17T16:13:07.980Z,34.44
2023-01-17T16:18:24.672Z,35.09
2023-01-17T16:23:27.862Z,35.52
2023-01-17T16:28:29.690Z,35.92
2023-01-17T16:33:31.522Z,36.39
2023-01-17T16:38:33.408Z,36.25
2023-01-17T16:43:35.304Z,36.22
2023-01-17T16:48:37.917Z,36.48
2023-01-17T16:53:39.815Z,36.70
2023-01-17T16:58:41.803Z,37.06
2023-01-17T17:03:44.605Z,36.86
2023-01-17T17:08:46.487Z,37.58
2023-01-17T17:13:49.965Z,37.28
2023-01-17T17:19:00.427Z,37.85
2023-01-17T17:24:02.621Z,37.89
2023-01-17T17:29:06.129Z,38.98
2023-01-17T17:34:10.712Z,39.39
2023-01-17T17:39:14.997Z,38.93
2023-01-17T17:44:17.838Z,38.79
2023-01-17T17:49:21.883Z,38.49
2023-01-17T17:54:24.799Z,38.62
2023-01-17T17:59:26.740Z,38.38
2023-01-17T18:04:28.670Z,38.34
2023-01-17T18:09:30.672Z,38.67
2023-01-17T18:14:32.622Z,38.92
2023-01-17T18:19:34.441Z,39.46
2023-01-17T18:24:36.271Z,39.13
2023-01-17T18:29:38.117Z,39.42
2023-01-17T18:34:41.631Z,39.44
2023-01-17T18:39:43.922Z,39.74
2023-01-17T18:44:45.760Z,39.61
2023-01-17T18:49:47.597Z,40.20
2023-01-17T18:54:49.438Z,39.96
2023-01-17T18:59:51.296Z,40.45
2023-01-17T19:04:53.086Z,40.98
2023-01-17T19:09:54.994Z,41.81
2023-01-17T19:14:56.772Z,41.65
2023-01-17T19:19:58.573Z,41.88
2023-01-17T19:25:00.456Z,42.15
2023-01-17T19:30:02.293Z,42.27
2023-01-17T19:35:04.318Z,41.89
2023-01-17T19:40:08.368Z,42.12
2023-01-17T19:45:12.348Z,42.09
2023-01-17T19:50:15.050Z,42.34
2023-01-17T19:55:17.810Z,42.05
2023-01-17T20:00:24.040Z,42.26
2023-01-17T20:05:29.147Z,42.13
2023-01-17T20:10:31.421Z,42.05
2023-01-17T20:15:34.368Z,42.25
2023-01-17T20:20:39.588Z,42.41
2023-01-17T20:25:59.115Z,42.33
2023-01-17T20:31:15.018Z,42.16
2023-01-17T20:36:17.965Z,42.32
2023-01-17T20:41:24.198Z,41.86
2023-01-17T20:46:29.150Z,42.51
2023-01-17T20:51:34.474Z,42.28
2023-01-17T20:56:37.845Z,42.63
2023-01-17T21:01:40.294Z,42.51
2023-01-17T21:06:44.127Z,43.15
2023-01-17T21:11:46.066Z,43.92
2023-01-17T21:16:47.980Z,43.82
2023-01-17T21:21:51.199Z,43.69
2023-01-17T21:26:53.023Z,43.73
2023-01-17T21:31:55.974Z,44.04
2023-01-17T21:36:57.825Z,44.03
2023-01-17T21:41:59.695Z,43.91
2023-01-17T21:47:02.007Z,43.96
2023-01-17T21:52:04.258Z,44.58
2023-01-17T21:57:24.976Z,44.38
2023-01-17T22:02:27.029Z,45.17
2023-01-17T22:07:29.274Z,45.01
2023-01-17T22:12:31.260Z,45.59
2023-01-17T22:17:33.126Z,45.85
2023-01-17T22:22:35.217Z,46.09
2023-01-17T22:27:37.060Z,45.84
2023-01-17T22:32:39.746Z,45.73
2023-01-17T22:37:41.715Z,45.76
2023-01-17T22:42:44.116Z,45.35
2023-01-17T22:47:46.136Z,44.76
2023-01-17T22:52:48.041Z,44.96
2023-01-17T22:57:50.216Z,44.91
2023-01-17T23:02:52.159Z,44.71
2023-01-17T23:07:54.134Z,45.15
2023-01-17T23:12:56.310Z,45.07
2023-01-17T23:18:16.899Z,45.43
2023-01-17T23:23:18.698Z,44.97
2023-01-17T23:28:20.904Z,44.55
2023-01-17T23:33:22.843Z,44.42
2023-01-17T23:38:29.740Z,44.46
2023-01-17T23:43:32.994Z,43.94
2023-01-17T23:48:34.818Z,44.02
2023-01-17T23:53:38.445Z,44.35
2023-01-17T23:58:40.592Z,44.12
